sensor_id;sensor_type;location;lat;lon;timestamp;P1;durP1;ratioP1;P2;durP2;ratioP2
6842;SDS011;3460;52.028;8.916;2022-09-29T00:00:39;12.03;;;7.90;;
6842;SDS011;3460;52.028;8.916;2022-09-29T00:03:06;10.17;;;6.80;;
6842;SDS011;3460;52.028;8.916;2022-09-29T00:05:33;10.30;;;8.07;;
6842;SDS011;3460;52.028;8.916;2022-09-29T00:08:00;9.20;;;7.33;;
6842;SDS011;3460;52.028;8.916;2022-09-29T00:10:28;8.93;;;7.63;;
6842;SDS011;3460;52.028;8.916;2022-09-29T00:12:55;12.37;;;7.43;;
6842;SDS011;3460;52.028;8.916;2022-09-29T00:15:22;9.87;;;7.53;;
6842;SDS011;3460;52.028;8.916;2022-09-29T00:17:48;11.43;;;8.00;;
6842;SDS011;3460;52.028;8.916;2022-09-29T00:20:15;10.77;;;8.23;;
6842;SDS011;3460;52.028;8.916;2022-09-29T00:22:42;12.90;;;8.37;;
6842;SDS011;3460;52.028;8.916;2022-09-29T00:25:08;13.57;;;7.90;;
6842;SDS011;3460;52.028;8.916;2022-09-29T00:27:36;9.03;;;7.23;;
6842;SDS011;3460;52.028;8.916;2022-09-29T00:30:04;10.30;;;7.60;;
6842;SDS011;3460;52.028;8.916;2022-09-29T00:32:31;10.57;;;7.83;;
6842;SDS011;3460;52.028;8.916;2022-09-29T00:34:58;9.50;;;6.80;;
6842;SDS011;3460;52.028;8.916;2022-09-29T00:37:24;10.20;;;8.37;;
6842;SDS011;3460;52.028;8.916;2022-09-29T00:39:51;12.00;;;8.47;;
6842;SDS011;3460;52.028;8.916;2022-09-29T00:42:18;10.10;;;8.33;;
6842;SDS011;3460;52.028;8.916;2022-09-29T00:45:01;12.40;;;8.83;;
6842;SDS011;3460;52.028;8.916;2022-09-29T00:47:36;10.80;;;8.40;;
6842;SDS011;3460;52.028;8.916;2022-09-29T00:50:06;13.97;;;8.73;;
6842;SDS011;3460;52.028;8.916;2022-09-29T00:52:40;11.17;;;7.80;;
6842;SDS011;3460;52.028;8.916;2022-09-29T00:55:09;11.77;;;9.40;;
6842;SDS011;3460;52.028;8.916;2022-09-29T00:57:41;12.87;;;8.83;;
6842;SDS011;3460;52.028;8.916;2022-09-29T01:00:13;14.37;;;9.53;;
6842;SDS011;3460;52.028;8.916;2022-09-29T01:02:42;11.70;;;8.83;;
6842;SDS011;3460;52.028;8.916;2022-09-29T01:05:12;15.53;;;9.83;;
6842;SDS011;3460;52.028;8.916;2022-09-29T01:07:43;12.87;;;8.17;;
6842;SDS011;3460;52.028;8.916;2022-09-29T01:10:10;10.77;;;9.10;;
6842;SDS011;3460;52.028;8.916;2022-09-29T01:12:38;11.20;;;8.57;;
6842;SDS011;3460;52.028;8.916;2022-09-29T01:15:05;11.47;;;8.60;;
6842;SDS011;3460;52.028;8.916;2022-09-29T01:17:34;12.27;;;8.83;;
6842;SDS011;3460;52.028;8.916;2022-09-29T01:20:02;11.87;;;8.93;;
6842;SDS011;3460;52.028;8.916;2022-09-29T01:25:37;13.07;;;8.90;;
6842;SDS011;3460;52.028;8.916;2022-09-29T01:28:30;11.07;;;8.93;;
6842;SDS011;3460;52.028;8.916;2022-09-29T01:31:15;13.00;;;8.37;;
6842;SDS011;3460;52.028;8.916;2022-09-29T01:33:48;13.60;;;9.03;;
6842;SDS011;3460;52.028;8.916;2022-09-29T01:36:23;11.00;;;8.63;;
6842;SDS011;3460;52.028;8.916;2022-09-29T01:38:59;10.77;;;8.17;;
6842;SDS011;3460;52.028;8.916;2022-09-29T01:41:37;12.27;;;9.17;;
6842;SDS011;3460;52.028;8.916;2022-09-29T01:44:11;12.13;;;8.37;;
6842;SDS011;3460;52.028;8.916;2022-09-29T01:46:45;12.20;;;8.47;;
6842;SDS011;3460;52.028;8.916;2022-09-29T01:49:15;11.07;;;8.20;;
6842;SDS011;3460;52.028;8.916;2022-09-29T01:51:46;11.83;;;8.30;;
6842;SDS011;3460;52.028;8.916;2022-09-29T01:54:19;13.67;;;8.83;;
6842;SDS011;3460;52.028;8.916;2022-09-29T01:56:49;12.90;;;8.97;;
6842;SDS011;3460;52.028;8.916;2022-09-29T01:59:23;13.33;;;9.17;;
6842;SDS011;3460;52.028;8.916;2022-09-29T02:01:57;11.40;;;8.83;;
6842;SDS011;3460;52.028;8.916;2022-09-29T02:04:28;13.60;;;8.70;;
6842;SDS011;3460;52.028;8.916;2022-09-29T02:06:59;10.00;;;8.47;;
6842;SDS011;3460;52.028;8.916;2022-09-29T02:09:28;14.67;;;9.27;;
6842;SDS011;3460;52.028;8.916;2022-09-29T02:11:59;11.73;;;7.43;;
6842;SDS011;3460;52.028;8.916;2022-09-29T02:14:29;12.67;;;8.30;;
6842;SDS011;3460;52.028;8.916;2022-09-29T02:17:03;9.80;;;7.53;;
6842;SDS011;3460;52.028;8.916;2022-09-29T02:19:33;11.23;;;7.57;;
6842;SDS011;3460;52.028;8.916;2022-09-29T02:22:02;12.77;;;8.17;;
6842;SDS011;3460;52.028;8.916;2022-09-29T02:24:29;11.77;;;7.70;;
6842;SDS011;3460;52.028;8.916;2022-09-29T02:26:56;13.23;;;8.97;;
6842;SDS011;3460;52.028;8.916;2022-09-29T02:29:23;13.67;;;8.30;;
6842;SDS011;3460;52.028;8.916;2022-09-29T02:31:51;11.67;;;9.20;;
6842;SDS011;3460;52.028;8.916;2022-09-29T02:34:20;11.27;;;8.57;;
6842;SDS011;3460;52.028;8.916;2022-09-29T02:36:50;11.40;;;8.50;;
6842;SDS011;3460;52.028;8.916;2022-09-29T02:39:25;13.17;;;9.07;;
6842;SDS011;3460;52.028;8.916;2022-09-29T02:42:06;14.17;;;8.90;;
6842;SDS011;3460;52.028;8.916;2022-09-29T02:44:46;12.40;;;9.13;;
6842;SDS011;3460;52.028;8.916;2022-09-29T02:50:38;16.40;;;9.93;;
6842;SDS011;3460;52.028;8.916;2022-09-29T02:53:20;15.50;;;10.13;;
6842;SDS011;3460;52.028;8.916;2022-09-29T02:55:56;15.93;;;11.60;;
6842;SDS011;3460;52.028;8.916;2022-09-29T02:58:31;15.87;;;11.73;;
6842;SDS011;3460;52.028;8.916;2022-09-29T03:01:03;15.17;;;11.43;;
6842;SDS011;3460;52.028;8.916;2022-09-29T03:03:31;17.63;;;11.07;;
6842;SDS011;3460;52.028;8.916;2022-09-29T03:05:59;16.80;;;11.83;;
6842;SDS011;3460;52.028;8.916;2022-09-29T03:08:26;17.70;;;11.47;;
6842;SDS011;3460;52.028;8.916;2022-09-29T03:10:53;17.37;;;11.57;;
6842;SDS011;3460;52.028;8.916;2022-09-29T03:13:19;15.00;;;11.03;;
6842;SDS011;3460;52.028;8.916;2022-09-29T03:15:46;15.73;;;12.37;;
6842;SDS011;3460;52.028;8.916;2022-09-29T03:18:13;16.00;;;11.50;;
6842;SDS011;3460;52.028;8.916;2022-09-29T03:20:40;15.77;;;11.70;;
6842;SDS011;3460;52.028;8.916;2022-09-29T03:23:08;18.33;;;11.57;;
6842;SDS011;3460;52.028;8.916;2022-09-29T03:25:34;16.50;;;12.17;;
6842;SDS011;3460;52.028;8.916;2022-09-29T03:28:01;14.53;;;11.20;;
6842;SDS011;3460;52.028;8.916;2022-09-29T03:30:28;15.67;;;11.37;;
6842;SDS011;3460;52.028;8.916;2022-09-29T03:32:54;18.17;;;12.17;;
6842;SDS011;3460;52.028;8.916;2022-09-29T03:35:21;18.43;;;13.07;;
6842;SDS011;3460;52.028;8.916;2022-09-29T03:37:48;22.33;;;14.37;;
6842;SDS011;3460;52.028;8.916;2022-09-29T03:40:16;18.63;;;13.00;;
6842;SDS011;3460;52.028;8.916;2022-09-29T03:42:44;17.37;;;13.33;;
6842;SDS011;3460;52.028;8.916;2022-09-29T03:45:11;16.93;;;12.33;;
6842;SDS011;3460;52.028;8.916;2022-09-29T03:47:38;16.53;;;11.53;;
6842;SDS011;3460;52.028;8.916;2022-09-29T03:50:05;17.70;;;11.37;;
6842;SDS011;3460;52.028;8.916;2022-09-29T03:52:32;17.83;;;12.20;;
6842;SDS011;3460;52.028;8.916;2022-09-29T03:54:58;16.37;;;11.87;;
6842;SDS011;3460;52.028;8.916;2022-09-29T03:57:26;19.63;;;13.63;;
6842;SDS011;3460;52.028;8.916;2022-09-29T03:59:53;17.57;;;12.80;;
6842;SDS011;3460;52.028;8.916;2022-09-29T04:02:20;16.10;;;11.93;;
6842;SDS011;3460;52.028;8.916;2022-09-29T04:04:47;19.27;;;13.53;;
6842;SDS011;3460;52.028;8.916;2022-09-29T04:07:13;18.23;;;13.50;;
6842;SDS011;3460;52.028;8.916;2022-09-29T04:09:40;17.30;;;12.77;;
6842;SDS011;3460;52.028;8.916;2022-09-29T04:12:07;20.43;;;12.83;;
6842;SDS011;3460;52.028;8.916;2022-09-29T04:14:35;20.67;;;13.73;;
6842;SDS011;3460;52.028;8.916;2022-09-29T04:17:02;18.53;;;12.10;;
6842;SDS011;3460;52.028;8.916;2022-09-29T04:19:28;18.30;;;12.53;;
6842;SDS011;3460;52.028;8.916;2022-09-29T04:21:55;17.90;;;12.53;;
6842;SDS011;3460;52.028;8.916;2022-09-29T04:24:22;17.13;;;12.80;;
6842;SDS011;3460;52.028;8.916;2022-09-29T04:26:49;16.33;;;12.53;;
6842;SDS011;3460;52.028;8.916;2022-09-29T04:29:15;17.57;;;12.37;;
6842;SDS011;3460;52.028;8.916;2022-09-29T04:31:43;19.47;;;11.87;;
6842;SDS011;3460;52.028;8.916;2022-09-29T04:34:10;14.97;;;10.57;;
6842;SDS011;3460;52.028;8.916;2022-09-29T04:36:37;14.40;;;10.03;;
6842;SDS011;3460;52.028;8.916;2022-09-29T04:39:04;15.17;;;10.40;;
6842;SDS011;3460;52.028;8.916;2022-09-29T04:41:31;16.07;;;9.63;;
6842;SDS011;3460;52.028;8.916;2022-09-29T04:44:00;15.83;;;10.33;;
6842;SDS011;3460;52.028;8.916;2022-09-29T04:46:27;12.77;;;9.90;;
6842;SDS011;3460;52.028;8.916;2022-09-29T04:48:55;14.47;;;10.07;;
6842;SDS011;3460;52.028;8.916;2022-09-29T04:51:22;13.97;;;9.47;;
6842;SDS011;3460;52.028;8.916;2022-09-29T04:53:49;14.80;;;9.30;;
6842;SDS011;3460;52.028;8.916;2022-09-29T04:56:17;14.80;;;10.03;;
6842;SDS011;3460;52.028;8.916;2022-09-29T04:58:44;14.80;;;10.27;;
6842;SDS011;3460;52.028;8.916;2022-09-29T05:01:11;13.63;;;10.30;;
6842;SDS011;3460;52.028;8.916;2022-09-29T05:03:38;15.37;;;10.47;;
6842;SDS011;3460;52.028;8.916;2022-09-29T05:06:07;14.67;;;10.30;;
6842;SDS011;3460;52.028;8.916;2022-09-29T05:08:34;16.70;;;11.57;;
6842;SDS011;3460;52.028;8.916;2022-09-29T05:11:02;17.03;;;10.87;;
6842;SDS011;3460;52.028;8.916;2022-09-29T05:13:30;19.00;;;12.07;;
6842;SDS011;3460;52.028;8.916;2022-09-29T05:15:57;21.17;;;12.83;;
6842;SDS011;3460;52.028;8.916;2022-09-29T05:18:24;20.77;;;13.20;;
6842;SDS011;3460;52.028;8.916;2022-09-29T05:20:51;16.23;;;11.20;;
6842;SDS011;3460;52.028;8.916;2022-09-29T05:23:19;19.43;;;12.63;;
6842;SDS011;3460;52.028;8.916;2022-09-29T05:25:47;16.77;;;11.43;;
6842;SDS011;3460;52.028;8.916;2022-09-29T05:28:14;17.47;;;12.50;;
6842;SDS011;3460;52.028;8.916;2022-09-29T05:30:40;17.73;;;12.43;;
6842;SDS011;3460;52.028;8.916;2022-09-29T05:33:07;17.03;;;12.10;;
6842;SDS011;3460;52.028;8.916;2022-09-29T05:35:34;17.17;;;12.40;;
6842;SDS011;3460;52.028;8.916;2022-09-29T05:38:01;18.37;;;12.43;;
6842;SDS011;3460;52.028;8.916;2022-09-29T05:40:29;15.77;;;12.10;;
6842;SDS011;3460;52.028;8.916;2022-09-29T05:42:57;21.87;;;14.03;;
6842;SDS011;3460;52.028;8.916;2022-09-29T05:45:24;20.33;;;13.23;;
6842;SDS011;3460;52.028;8.916;2022-09-29T05:47:51;18.37;;;12.73;;
6842;SDS011;3460;52.028;8.916;2022-09-29T05:50:18;15.83;;;11.70;;
6842;SDS011;3460;52.028;8.916;2022-09-29T05:52:45;16.87;;;11.93;;
6842;SDS011;3460;52.028;8.916;2022-09-29T05:55:13;16.03;;;12.07;;
6842;SDS011;3460;52.028;8.916;2022-09-29T05:57:41;18.00;;;11.90;;
6842;SDS011;3460;52.028;8.916;2022-09-29T06:00:12;18.60;;;12.77;;
6842;SDS011;3460;52.028;8.916;2022-09-29T06:02:39;18.90;;;13.07;;
6842;SDS011;3460;52.028;8.916;2022-09-29T06:05:06;17.67;;;13.23;;
6842;SDS011;3460;52.028;8.916;2022-09-29T06:07:33;18.90;;;12.20;;
6842;SDS011;3460;52.028;8.916;2022-09-29T06:10:00;17.43;;;12.07;;
6842;SDS011;3460;52.028;8.916;2022-09-29T06:12:26;17.40;;;12.47;;
6842;SDS011;3460;52.028;8.916;2022-09-29T06:14:54;16.77;;;12.33;;
6842;SDS011;3460;52.028;8.916;2022-09-29T06:17:21;20.03;;;12.33;;
6842;SDS011;3460;52.028;8.916;2022-09-29T06:19:47;15.90;;;12.07;;
6842;SDS011;3460;52.028;8.916;2022-09-29T06:22:14;15.80;;;11.70;;
6842;SDS011;3460;52.028;8.916;2022-09-29T06:24:41;18.10;;;12.37;;
6842;SDS011;3460;52.028;8.916;2022-09-29T06:27:07;17.60;;;11.63;;
6842;SDS011;3460;52.028;8.916;2022-09-29T06:29:35;15.93;;;12.03;;
6842;SDS011;3460;52.028;8.916;2022-09-29T06:32:03;16.33;;;12.43;;
6842;SDS011;3460;52.028;8.916;2022-09-29T06:34:29;17.37;;;11.57;;
6842;SDS011;3460;52.028;8.916;2022-09-29T06:36:56;17.40;;;12.90;;
6842;SDS011;3460;52.028;8.916;2022-09-29T06:39:40;16.23;;;11.30;;
6842;SDS011;3460;52.028;8.916;2022-09-29T06:42:07;18.57;;;12.20;;
6842;SDS011;3460;52.028;8.916;2022-09-29T06:44:34;16.53;;;11.70;;
6842;SDS011;3460;52.028;8.916;2022-09-29T06:47:00;18.27;;;12.70;;
6842;SDS011;3460;52.028;8.916;2022-09-29T06:49:28;15.93;;;12.07;;
6842;SDS011;3460;52.028;8.916;2022-09-29T06:51:55;18.37;;;12.60;;
6842;SDS011;3460;52.028;8.916;2022-09-29T06:54:22;19.17;;;13.77;;
6842;SDS011;3460;52.028;8.916;2022-09-29T06:56:50;16.70;;;11.07;;
6842;SDS011;3460;52.028;8.916;2022-09-29T06:59:18;18.03;;;11.37;;
6842;SDS011;3460;52.028;8.916;2022-09-29T07:01:44;16.13;;;10.70;;
6842;SDS011;3460;52.028;8.916;2022-09-29T07:04:14;16.30;;;11.53;;
6842;SDS011;3460;52.028;8.916;2022-09-29T07:06:43;16.00;;;10.83;;
6842;SDS011;3460;52.028;8.916;2022-09-29T07:09:10;14.07;;;11.07;;
6842;SDS011;3460;52.028;8.916;2022-09-29T07:11:39;15.57;;;12.50;;
6842;SDS011;3460;52.028;8.916;2022-09-29T07:14:07;16.47;;;11.77;;
6842;SDS011;3460;52.028;8.916;2022-09-29T07:16:33;17.17;;;12.77;;
6842;SDS011;3460;52.028;8.916;2022-09-29T07:19:00;14.67;;;11.17;;
6842;SDS011;3460;52.028;8.916;2022-09-29T07:21:28;15.90;;;11.50;;
6842;SDS011;3460;52.028;8.916;2022-09-29T07:23:55;14.53;;;10.60;;
6842;SDS011;3460;52.028;8.916;2022-09-29T07:26:21;16.20;;;11.43;;
6842;SDS011;3460;52.028;8.916;2022-09-29T07:28:48;16.10;;;11.23;;
6842;SDS011;3460;52.028;8.916;2022-09-29T07:31:16;15.17;;;11.37;;
6842;SDS011;3460;52.028;8.916;2022-09-29T07:33:45;15.53;;;11.17;;
6842;SDS011;3460;52.028;8.916;2022-09-29T07:36:13;15.97;;;11.13;;
6842;SDS011;3460;52.028;8.916;2022-09-29T07:38:44;14.27;;;11.67;;
6842;SDS011;3460;52.028;8.916;2022-09-29T07:41:11;16.17;;;11.40;;
6842;SDS011;3460;52.028;8.916;2022-09-29T07:43:38;15.00;;;10.40;;
6842;SDS011;3460;52.028;8.916;2022-09-29T07:46:05;12.20;;;10.03;;
6842;SDS011;3460;52.028;8.916;2022-09-29T07:48:33;14.53;;;10.87;;
6842;SDS011;3460;52.028;8.916;2022-09-29T07:51:02;13.63;;;10.93;;
6842;SDS011;3460;52.028;8.916;2022-09-29T07:53:30;13.07;;;10.40;;
6842;SDS011;3460;52.028;8.916;2022-09-29T07:56:02;14.23;;;10.73;;
6842;SDS011;3460;52.028;8.916;2022-09-29T07:58:29;12.77;;;10.83;;
6842;SDS011;3460;52.028;8.916;2022-09-29T08:00:57;16.87;;;11.90;;
6842;SDS011;3460;52.028;8.916;2022-09-29T08:03:25;21.77;;;17.13;;
6842;SDS011;3460;52.028;8.916;2022-09-29T08:05:54;14.93;;;11.40;;
6842;SDS011;3460;52.028;8.916;2022-09-29T08:08:21;14.50;;;11.30;;
6842;SDS011;3460;52.028;8.916;2022-09-29T08:10:48;13.57;;;11.17;;
6842;SDS011;3460;52.028;8.916;2022-09-29T08:13:16;14.77;;;11.50;;
6842;SDS011;3460;52.028;8.916;2022-09-29T08:15:43;14.63;;;10.60;;
6842;SDS011;3460;52.028;8.916;2022-09-29T08:18:10;15.13;;;11.57;;
6842;SDS011;3460;52.028;8.916;2022-09-29T08:20:36;13.97;;;11.40;;
6842;SDS011;3460;52.028;8.916;2022-09-29T08:23:03;13.77;;;11.13;;
6842;SDS011;3460;52.028;8.916;2022-09-29T08:25:30;15.47;;;12.57;;
6842;SDS011;3460;52.028;8.916;2022-09-29T08:27:59;13.33;;;11.27;;
6842;SDS011;3460;52.028;8.916;2022-09-29T08:30:27;14.73;;;11.37;;
6842;SDS011;3460;52.028;8.916;2022-09-29T08:32:54;13.97;;;10.97;;
6842;SDS011;3460;52.028;8.916;2022-09-29T08:35:21;14.80;;;10.97;;
6842;SDS011;3460;52.028;8.916;2022-09-29T08:37:49;12.93;;;10.80;;
6842;SDS011;3460;52.028;8.916;2022-09-29T08:40:16;15.23;;;11.07;;
6842;SDS011;3460;52.028;8.916;2022-09-29T08:42:46;16.90;;;11.33;;
6842;SDS011;3460;52.028;8.916;2022-09-29T08:45:22;13.93;;;12.00;;
6842;SDS011;3460;52.028;8.916;2022-09-29T08:47:55;15.87;;;12.20;;
6842;SDS011;3460;52.028;8.916;2022-09-29T08:50:30;13.07;;;10.97;;
6842;SDS011;3460;52.028;8.916;2022-09-29T08:53:02;13.67;;;9.93;;
6842;SDS011;3460;52.028;8.916;2022-09-29T08:55:34;13.27;;;10.93;;
6842;SDS011;3460;52.028;8.916;2022-09-29T08:58:08;15.57;;;10.77;;
6842;SDS011;3460;52.028;8.916;2022-09-29T09:00:38;13.00;;;11.13;;
6842;SDS011;3460;52.028;8.916;2022-09-29T09:03:15;15.97;;;10.50;;
6842;SDS011;3460;52.028;8.916;2022-09-29T09:06:12;15.50;;;10.77;;
6842;SDS011;3460;52.028;8.916;2022-09-29T09:08:47;11.73;;;10.47;;
6842;SDS011;3460;52.028;8.916;2022-09-29T09:11:35;14.83;;;10.73;;
6842;SDS011;3460;52.028;8.916;2022-09-29T09:14:14;13.50;;;10.00;;
6842;SDS011;3460;52.028;8.916;2022-09-29T09:16:51;14.17;;;10.40;;
6842;SDS011;3460;52.028;8.916;2022-09-29T09:19:35;14.67;;;11.23;;
6842;SDS011;3460;52.028;8.916;2022-09-29T09:22:20;13.13;;;10.90;;
6842;SDS011;3460;52.028;8.916;2022-09-29T09:24:52;15.00;;;11.57;;
6842;SDS011;3460;52.028;8.916;2022-09-29T09:27:24;14.30;;;11.23;;
6842;SDS011;3460;52.028;8.916;2022-09-29T09:29:56;15.67;;;11.73;;
6842;SDS011;3460;52.028;8.916;2022-09-29T09:32:32;12.53;;;10.87;;
6842;SDS011;3460;52.028;8.916;2022-09-29T09:35:05;13.90;;;10.43;;
6842;SDS011;3460;52.028;8.916;2022-09-29T09:37:45;12.43;;;10.37;;
6842;SDS011;3460;52.028;8.916;2022-09-29T09:40:15;13.07;;;11.07;;
6842;SDS011;3460;52.028;8.916;2022-09-29T09:42:45;14.97;;;10.23;;
6842;SDS011;3460;52.028;8.916;2022-09-29T09:45:17;15.07;;;9.60;;
6842;SDS011;3460;52.028;8.916;2022-09-29T09:47:52;11.20;;;9.80;;
6842;SDS011;3460;52.028;8.916;2022-09-29T09:50:26;13.87;;;10.10;;
6842;SDS011;3460;52.028;8.916;2022-09-29T09:52:54;11.50;;;9.17;;
6842;SDS011;3460;52.028;8.916;2022-09-29T09:55:24;13.23;;;9.47;;
6842;SDS011;3460;52.028;8.916;2022-09-29T10:00:53;10.43;;;9.03;;
6842;SDS011;3460;52.028;8.916;2022-09-29T10:03:22;13.07;;;9.27;;
6842;SDS011;3460;52.028;8.916;2022-09-29T10:05:50;10.80;;;9.00;;
6842;SDS011;3460;52.028;8.916;2022-09-29T10:08:19;13.00;;;10.10;;
6842;SDS011;3460;52.028;8.916;2022-09-29T10:10:48;15.90;;;11.03;;
6842;SDS011;3460;52.028;8.916;2022-09-29T10:13:15;11.90;;;9.97;;
6842;SDS011;3460;52.028;8.916;2022-09-29T10:15:43;13.27;;;9.90;;
6842;SDS011;3460;52.028;8.916;2022-09-29T10:18:15;10.67;;;9.57;;
6842;SDS011;3460;52.028;8.916;2022-09-29T10:20:45;11.00;;;8.13;;
6842;SDS011;3460;52.028;8.916;2022-09-29T10:23:18;12.80;;;8.60;;
6842;SDS011;3460;52.028;8.916;2022-09-29T10:25:53;12.70;;;8.73;;
6842;SDS011;3460;52.028;8.916;2022-09-29T10:28:22;12.07;;;9.13;;
6842;SDS011;3460;52.028;8.916;2022-09-29T10:30:51;11.97;;;9.17;;
6842;SDS011;3460;52.028;8.916;2022-09-29T10:33:20;12.77;;;10.13;;
6842;SDS011;3460;52.028;8.916;2022-09-29T10:35:49;12.43;;;10.03;;
6842;SDS011;3460;52.028;8.916;2022-09-29T10:38:32;9.27;;;8.10;;
6842;SDS011;3460;52.028;8.916;2022-09-29T10:41:02;11.43;;;8.10;;
6842;SDS011;3460;52.028;8.916;2022-09-29T10:43:32;10.03;;;8.03;;
6842;SDS011;3460;52.028;8.916;2022-09-29T10:46:02;10.07;;;8.13;;
6842;SDS011;3460;52.028;8.916;2022-09-29T10:48:29;8.70;;;6.97;;
6842;SDS011;3460;52.028;8.916;2022-09-29T10:50:57;8.80;;;7.10;;
6842;SDS011;3460;52.028;8.916;2022-09-29T10:53:33;8.80;;;6.50;;
6842;SDS011;3460;52.028;8.916;2022-09-29T10:56:04;10.50;;;6.93;;
6842;SDS011;3460;52.028;8.916;2022-09-29T10:58:40;7.63;;;6.00;;
6842;SDS011;3460;52.028;8.916;2022-09-29T11:01:10;9.87;;;6.50;;
6842;SDS011;3460;52.028;8.916;2022-09-29T11:03:38;5.73;;;5.13;;
6842;SDS011;3460;52.028;8.916;2022-09-29T11:06:11;10.83;;;4.80;;
6842;SDS011;3460;52.028;8.916;2022-09-29T11:08:56;4.20;;;3.80;;
6842;SDS011;3460;52.028;8.916;2022-09-29T11:11:26;5.10;;;4.37;;
6842;SDS011;3460;52.028;8.916;2022-09-29T11:13:55;5.67;;;4.30;;
6842;SDS011;3460;52.028;8.916;2022-09-29T11:16:25;4.73;;;3.37;;
6842;SDS011;3460;52.028;8.916;2022-09-29T11:18:54;4.03;;;3.40;;
6842;SDS011;3460;52.028;8.916;2022-09-29T11:21:43;3.50;;;2.90;;
6842;SDS011;3460;52.028;8.916;2022-09-29T11:24:46;3.40;;;3.10;;
6842;SDS011;3460;52.028;8.916;2022-09-29T11:27:37;3.80;;;3.10;;
6842;SDS011;3460;52.028;8.916;2022-09-29T11:30:14;5.67;;;3.00;;
6842;SDS011;3460;52.028;8.916;2022-09-29T11:32:55;5.27;;;2.67;;
6842;SDS011;3460;52.028;8.916;2022-09-29T11:35:44;2.23;;;2.00;;
6842;SDS011;3460;52.028;8.916;2022-09-29T11:41:05;3.10;;;1.73;;
6842;SDS011;3460;52.028;8.916;2022-09-29T11:43:45;4.53;;;2.20;;
6842;SDS011;3460;52.028;8.916;2022-09-29T11:46:19;3.53;;;2.70;;
6842;SDS011;3460;52.028;8.916;2022-09-29T11:48:58;2.40;;;2.00;;
6842;SDS011;3460;52.028;8.916;2022-09-29T11:51:44;4.40;;;2.90;;
6842;SDS011;3460;52.028;8.916;2022-09-29T11:54:35;4.03;;;3.33;;
6842;SDS011;3460;52.028;8.916;2022-09-29T11:57:16;3.97;;;2.93;;
6842;SDS011;3460;52.028;8.916;2022-09-29T11:59:53;4.17;;;2.87;;
6842;SDS011;3460;52.028;8.916;2022-09-29T12:05:31;3.20;;;1.83;;
6842;SDS011;3460;52.028;8.916;2022-09-29T12:08:06;2.30;;;1.90;;
6842;SDS011;3460;52.028;8.916;2022-09-29T12:10:43;1.60;;;1.40;;
6842;SDS011;3460;52.028;8.916;2022-09-29T12:13:21;1.67;;;1.23;;
6842;SDS011;3460;52.028;8.916;2022-09-29T12:15:54;2.07;;;1.87;;
6842;SDS011;3460;52.028;8.916;2022-09-29T12:18:24;2.63;;;2.00;;
6842;SDS011;3460;52.028;8.916;2022-09-29T12:20:56;2.30;;;1.83;;
6842;SDS011;3460;52.028;8.916;2022-09-29T12:23:26;3.37;;;1.70;;
6842;SDS011;3460;52.028;8.916;2022-09-29T12:25:58;3.00;;;1.60;;
6842;SDS011;3460;52.028;8.916;2022-09-29T12:28:33;4.57;;;1.50;;
6842;SDS011;3460;52.028;8.916;2022-09-29T12:31:08;2.27;;;1.70;;
6842;SDS011;3460;52.028;8.916;2022-09-29T12:33:38;2.97;;;2.00;;
6842;SDS011;3460;52.028;8.916;2022-09-29T12:36:14;2.87;;;2.07;;
6842;SDS011;3460;52.028;8.916;2022-09-29T12:39:04;3.63;;;2.17;;
6842;SDS011;3460;52.028;8.916;2022-09-29T12:41:39;1.93;;;1.50;;
6842;SDS011;3460;52.028;8.916;2022-09-29T12:44:12;1.60;;;1.50;;
6842;SDS011;3460;52.028;8.916;2022-09-29T12:46:44;1.60;;;1.10;;
6842;SDS011;3460;52.028;8.916;2022-09-29T12:49:17;2.60;;;1.00;;
6842;SDS011;3460;52.028;8.916;2022-09-29T12:51:49;2.30;;;1.30;;
6842;SDS011;3460;52.028;8.916;2022-09-29T12:54:18;2.80;;;1.60;;
6842;SDS011;3460;52.028;8.916;2022-09-29T12:56:49;2.77;;;1.97;;
6842;SDS011;3460;52.028;8.916;2022-09-29T12:59:24;2.13;;;1.67;;
6842;SDS011;3460;52.028;8.916;2022-09-29T13:01:57;2.17;;;1.70;;
6842;SDS011;3460;52.028;8.916;2022-09-29T13:04:39;2.23;;;1.77;;
6842;SDS011;3460;52.028;8.916;2022-09-29T13:10:29;2.20;;;1.67;;
6842;SDS011;3460;52.028;8.916;2022-09-29T13:13:28;3.63;;;2.00;;
6842;SDS011;3460;52.028;8.916;2022-09-29T13:16:22;4.10;;;1.80;;
6842;SDS011;3460;52.028;8.916;2022-09-29T13:22:04;2.93;;;1.73;;
6842;SDS011;3460;52.028;8.916;2022-09-29T13:24:49;1.50;;;1.30;;
6842;SDS011;3460;52.028;8.916;2022-09-29T13:27:25;4.07;;;1.70;;
6842;SDS011;3460;52.028;8.916;2022-09-29T13:29:57;2.40;;;1.37;;
6842;SDS011;3460;52.028;8.916;2022-09-29T13:32:31;3.93;;;1.53;;
6842;SDS011;3460;52.028;8.916;2022-09-29T13:34:59;4.90;;;1.60;;
6842;SDS011;3460;52.028;8.916;2022-09-29T13:37:34;2.27;;;1.60;;
6842;SDS011;3460;52.028;8.916;2022-09-29T13:40:14;2.97;;;1.40;;
6842;SDS011;3460;52.028;8.916;2022-09-29T13:42:45;3.30;;;1.53;;
6842;SDS011;3460;52.028;8.916;2022-09-29T13:53:51;2.93;;;1.33;;
6842;SDS011;3460;52.028;8.916;2022-09-29T14:02:47;2.80;;;1.40;;
6842;SDS011;3460;52.028;8.916;2022-09-29T14:05:46;2.40;;;1.47;;
6842;SDS011;3460;52.028;8.916;2022-09-29T14:08:20;1.97;;;1.40;;
6842;SDS011;3460;52.028;8.916;2022-09-29T14:10:52;2.50;;;1.40;;
6842;SDS011;3460;52.028;8.916;2022-09-29T14:13:26;3.90;;;1.70;;
6842;SDS011;3460;52.028;8.916;2022-09-29T14:16:11;3.03;;;1.90;;
6842;SDS011;3460;52.028;8.916;2022-09-29T14:18:44;3.37;;;1.70;;
6842;SDS011;3460;52.028;8.916;2022-09-29T14:27:18;1.77;;;1.47;;
6842;SDS011;3460;52.028;8.916;2022-09-29T14:29:52;2.40;;;1.40;;
6842;SDS011;3460;52.028;8.916;2022-09-29T14:32:27;2.73;;;1.63;;
6842;SDS011;3460;52.028;8.916;2022-09-29T14:35:05;3.70;;;1.60;;
6842;SDS011;3460;52.028;8.916;2022-09-29T14:37:42;3.80;;;1.40;;
6842;SDS011;3460;52.028;8.916;2022-09-29T14:40:11;3.40;;;1.17;;
6842;SDS011;3460;52.028;8.916;2022-09-29T14:43:04;2.90;;;1.67;;
6842;SDS011;3460;52.028;8.916;2022-09-29T14:45:36;3.20;;;1.53;;
6842;SDS011;3460;52.028;8.916;2022-09-29T14:48:37;2.10;;;1.20;;
6842;SDS011;3460;52.028;8.916;2022-09-29T14:51:30;2.70;;;1.97;;
6842;SDS011;3460;52.028;8.916;2022-09-29T14:54:20;2.70;;;1.40;;
6842;SDS011;3460;52.028;8.916;2022-09-29T14:56:57;1.90;;;1.50;;
6842;SDS011;3460;52.028;8.916;2022-09-29T14:59:37;3.63;;;1.70;;
6842;SDS011;3460;52.028;8.916;2022-09-29T15:02:21;3.73;;;1.67;;
6842;SDS011;3460;52.028;8.916;2022-09-29T15:04:50;4.23;;;1.40;;
6842;SDS011;3460;52.028;8.916;2022-09-29T15:07:18;4.00;;;1.73;;
6842;SDS011;3460;52.028;8.916;2022-09-29T15:09:48;2.20;;;1.70;;
6842;SDS011;3460;52.028;8.916;2022-09-29T15:12:19;1.43;;;1.33;;
6842;SDS011;3460;52.028;8.916;2022-09-29T15:14:51;2.37;;;1.40;;
6842;SDS011;3460;52.028;8.916;2022-09-29T15:17:26;2.17;;;1.50;;
6842;SDS011;3460;52.028;8.916;2022-09-29T15:20:06;2.37;;;1.50;;
6842;SDS011;3460;52.028;8.916;2022-09-29T15:25:37;2.47;;;1.90;;
6842;SDS011;3460;52.028;8.916;2022-09-29T15:28:08;4.37;;;2.10;;
6842;SDS011;3460;52.028;8.916;2022-09-29T15:30:40;2.57;;;2.03;;
6842;SDS011;3460;52.028;8.916;2022-09-29T15:33:16;2.67;;;1.60;;
6842;SDS011;3460;52.028;8.916;2022-09-29T15:35:48;2.33;;;1.40;;
6842;SDS011;3460;52.028;8.916;2022-09-29T15:38:33;4.60;;;1.30;;
6842;SDS011;3460;52.028;8.916;2022-09-29T15:41:04;1.77;;;1.20;;
6842;SDS011;3460;52.028;8.916;2022-09-29T15:43:41;2.97;;;1.97;;
6842;SDS011;3460;52.028;8.916;2022-09-29T15:46:17;2.57;;;1.30;;
6842;SDS011;3460;52.028;8.916;2022-09-29T15:49:03;2.03;;;1.60;;
6842;SDS011;3460;52.028;8.916;2022-09-29T15:51:32;2.73;;;1.70;;
6842;SDS011;3460;52.028;8.916;2022-09-29T15:54:00;4.03;;;2.00;;
6842;SDS011;3460;52.028;8.916;2022-09-29T15:56:30;2.47;;;1.50;;
6842;SDS011;3460;52.028;8.916;2022-09-29T15:58:56;3.40;;;2.43;;
6842;SDS011;3460;52.028;8.916;2022-09-29T16:01:23;4.60;;;1.80;;
6842;SDS011;3460;52.028;8.916;2022-09-29T16:03:51;2.07;;;1.80;;
6842;SDS011;3460;52.028;8.916;2022-09-29T16:06:24;2.13;;;1.90;;
6842;SDS011;3460;52.028;8.916;2022-09-29T16:08:54;3.63;;;2.43;;
6842;SDS011;3460;52.028;8.916;2022-09-29T16:11:24;2.63;;;2.17;;